Messages de WXBOT - vue carte · info · télémétrie · météo · trame · statuts · balises · messages · bulletins · naviguer · bouger · Mon compte
Indicatif:
Affiche:

Charge message trames ...

Les messages APRS sont conservés durant 14 jours. Il est possible de faire une recherche en utilisant les jokers ( *?) après un préfixe.

2020-06-03 19:01:16 EDT: PU2PYC-5>WXBOT: Help
2020-06-03 19:01:16 EDT: PU2PYC-5>WXBOT: Cwop
2020-06-03 19:01:18 EDT: WXBOT>PU2PYC-5: Sorry, unable to get a forecast for location -23.62917/-46.94583
2020-06-03 19:01:23 EDT: WXBOT>PU2PYC-5: Send an APRS message to WXBOT with 'where' 'when' 'what'
2020-06-03 19:01:28 EDT: WXBOT>PU2PYC-5: where= City,ST callsign,APRS obj,lat/lon,grid,CWOP,airport or zip
2020-06-03 19:01:33 EDT: WXBOT>PU2PYC-5: when= tonight,tomorrow, or day of week i.e. Sunday
2020-06-03 19:01:38 EDT: WXBOT>PU2PYC-5: what= full,metar,cwop,current or whois
2020-06-03 19:01:43 EDT: WXBOT>PU2PYC-5: Forecast available only at United States locations
2020-06-03 19:01:48 EDT: WXBOT>PU2PYC-5: Unable to find location for PU2PYC-5
2020-06-03 19:01:55 EDT: WXBOT>PU2PYC-5: EW6180 64,wind:calm,1019.8mbar,rh:88%,rain:none
2020-06-03 19:03:02 EDT: WA1GOV-1>WXBOT: WA2JSG
2020-06-03 19:03:05 EDT: WXBOT>WA1GOV-1: 3 Miles S Pedricktown NJ. Severe Thunderstorm Watch, Tonight,Severe
2020-06-03 19:03:10 EDT: WXBOT>WA1GOV-1: Thunderstorms 70% Low 67
2020-06-03 19:03:28 EDT: PU2PYC-5>WXBOT: Whois
2020-06-03 19:03:28 EDT: PU2PYC-5>WXBOT: Miami
2020-06-03 19:03:28 EDT: WXBOT>PU2PYC-5: Sorry, info and whois commands are currently unavailable.
2020-06-03 19:03:36 EDT: WXBOT>PU2PYC-5: 7 Miles SE Miami TX. Hazardous Weather Outlook, Tonight,Partly Clou
2020-06-03 19:03:41 EDT: WXBOT>PU2PYC-5: dy Low 66
2020-06-03 19:07:58 EDT: PU2PYC-5>WXBOT: Whois
2020-06-03 19:07:58 EDT: PU2PYC-5>WXBOT: Miami
2020-06-03 19:07:58 EDT: WXBOT>PU2PYC-5: Sorry, info and whois commands are currently unavailable.
2020-06-03 19:08:06 EDT: WXBOT>PU2PYC-5: 7 Miles SE Miami TX. Hazardous Weather Outlook, Tonight,Partly Clou
2020-06-03 19:08:11 EDT: WXBOT>PU2PYC-5: dy Low 66
2020-06-03 20:47:29 EDT: AB0TJ-5>WXBOT: 81504
2020-06-03 20:47:36 EDT: WXBOT>AB0TJ-5: Fruitvale CO. Hazardous Weather Outlook, Tonight,Mostly Clear Low 6
2020-06-03 20:47:41 EDT: WXBOT>AB0TJ-5: 2
2020-06-03 21:10:24 EDT: KM6YFK-5>WXBOT: Today
2020-06-03 21:10:31 EDT: WXBOT>KM6YFK-5: Cottonwood CA. Heat Advisory, Tonight,Mostly Clear Low 66
2020-06-03 21:42:55 EDT: WP4PWA>WXBOT: today
2020-06-03 21:42:58 EDT: WXBOT>WP4PWA: Trujillo Alto PR. Hazardous Weather Outlook, Tonight,Isolated Showe
2020-06-03 21:43:03 EDT: WXBOT>WP4PWA: rs 20% Low 77
2020-06-03 22:07:37 EDT: KD9NLP-7>WXBOT: krpj
2020-06-03 22:07:43 EDT: WXBOT>KD9NLP-7: KRPJ 040155Z AUTO 27004KT 10SM SCT035 SCT042 BKN048 23/21 A2978 RMK
2020-06-03 22:07:48 EDT: WXBOT>KD9NLP-7: AO2 LTG DSNT SW T02300211
2020-06-03 22:39:34 EDT: W4CMB>WXBOT: today
2020-06-03 22:39:42 EDT: WXBOT>W4CMB: Ashland GA. Hazardous Weather Outlook, Tonight,Partly Cloudy Low 69
2020-06-03 23:53:37 EDT: KC1KUJ-9>WXBOT: ?
2020-06-03 23:53:43 EDT: WXBOT>KC1KUJ-9: Send an APRS message to WXBOT with 'where' 'when' 'what'
2020-06-03 23:53:48 EDT: WXBOT>KC1KUJ-9: where= City,ST callsign,APRS obj,lat/lon,grid,CWOP,airport or zip
2020-06-03 23:53:53 EDT: WXBOT>KC1KUJ-9: when= tonight,tomorrow, or day of week i.e. Sunday
2020-06-03 23:53:58 EDT: WXBOT>KC1KUJ-9: what= full,metar,cwop,current or whois
2020-06-03 23:54:03 EDT: WXBOT>KC1KUJ-9: Forecast available only at United States locations
2020-06-03 23:54:08 EDT: WXBOT>KC1KUJ-9: Unable to find location for KC1KUJ-9
2020-06-03 23:56:02 EDT: KC1KUJ-9>WXBOT: 06010 tomorrow full
2020-06-03 23:56:09 EDT: WXBOT>KC1KUJ-9: Bristol CT. Thursday,Mostly sunny, with a high near 83. Calm wind b
2020-06-03 23:56:14 EDT: WXBOT>KC1KUJ-9: ecoming west 5 to 7 mph in the morning.
2020-06-04 00:48:05 EDT: DF1CHB-3>WXBOT: EDDL
2020-06-04 00:48:06 EDT: WXBOT>DF1CHB-3: EDDL 040420Z 31005KT 9999 FEW012 SCT021 15/13 Q0997 TEMPO BKN012
2020-06-04 00:48:49 EDT: DF1CHB-3>WXBOT: ELLX
2020-06-04 00:48:50 EDT: WXBOT>DF1CHB-3: ELLX 040420Z VRB02KT 6000 SCT003 BKN004 13/12 Q0998 TEMPO 3000 BR
< précédent
User guide · FAQ · Blog · Groupe de discussion · Lien vers aprs.fi · Sites AIS · Statut du service · Statistiques de la base de données · Publicité sur aprs.fi · Détails techniques · API · Journal des changements · Modifications futures · Droits et remerciements · Conditions d'utilisation · iPhone/iPad APRS